createdAt,value
2022-09-07T00:02:48.752Z,77.50
2022-09-07T00:05:46.305Z,77.67
2022-09-07T00:08:44.497Z,77.78
2022-09-07T00:11:41.970Z,77.85
2022-09-07T00:14:39.464Z,77.84
2022-09-07T00:17:36.949Z,78.01
2022-09-07T00:20:34.444Z,78.12
2022-09-07T00:23:31.925Z,78.17
2022-09-07T00:26:29.375Z,78.29
2022-09-07T00:29:26.855Z,78.36
2022-09-07T00:32:24.338Z,78.46
2022-09-07T00:35:21.854Z,78.60
2022-09-07T00:38:19.340Z,78.52
2022-09-07T00:41:16.838Z,78.63
2022-09-07T00:44:14.321Z,78.75
2022-09-07T00:47:11.789Z,78.83
2022-09-07T00:50:09.532Z,78.89
2022-09-07T00:53:07.079Z,78.89
2022-09-07T00:56:04.631Z,78.96
2022-09-07T00:59:02.371Z,79.12
2022-09-07T01:01:59.873Z,79.32
2022-09-07T01:04:57.446Z,79.60
2022-09-07T01:07:57.010Z,79.66
2022-09-07T01:10:54.512Z,79.77
2022-09-07T01:13:52.011Z,79.91
2022-09-07T01:16:49.500Z,79.90
2022-09-07T01:19:47.004Z,79.88
2022-09-07T01:22:44.532Z,80.06
2022-09-07T01:25:41.984Z,80.18
2022-09-07T01:28:39.659Z,80.27
2022-09-07T01:31:37.222Z,80.38
2022-09-07T01:34:34.740Z,80.46
2022-09-07T01:37:32.205Z,80.51
2022-09-07T01:40:29.701Z,80.55
2022-09-07T01:43:27.706Z,80.69
2022-09-07T01:46:25.184Z,80.68
2022-09-07T01:49:22.726Z,80.65
2022-09-07T01:52:20.191Z,80.60
2022-09-07T01:55:17.686Z,80.63
2022-09-07T01:58:15.153Z,80.74
2022-09-07T02:01:12.697Z,80.78
2022-09-07T02:04:10.474Z,80.83
2022-09-07T02:07:07.955Z,80.88
2022-09-07T02:10:05.453Z,80.91
2022-09-07T02:13:03.215Z,80.92
2022-09-07T02:16:00.776Z,81.06
2022-09-07T02:18:58.427Z,81.23
2022-09-07T02:21:55.932Z,81.42
2022-09-07T02:24:53.389Z,81.56
2022-09-07T02:27:50.860Z,81.54
2022-09-07T02:30:48.373Z,81.66
2022-09-07T02:33:45.904Z,81.76
2022-09-07T02:36:43.407Z,81.70
2022-09-07T02:39:40.961Z,81.65
2022-09-07T02:42:38.483Z,81.57
2022-09-07T02:45:35.941Z,81.69
2022-09-07T02:48:33.419Z,81.74
2022-09-07T02:51:30.913Z,81.72
2022-09-07T02:54:28.384Z,81.78
2022-09-07T02:57:25.907Z,81.84
2022-09-07T03:00:26.422Z,81.97
2022-09-07T03:03:24.008Z,82.04
2022-09-07T03:06:21.467Z,82.17
2022-09-07T03:09:18.939Z,82.28
2022-09-07T03:12:16.484Z,82.32
2022-09-07T03:15:14.006Z,82.26
2022-09-07T03:18:12.568Z,82.28
2022-09-07T03:21:10.053Z,82.34
2022-09-07T03:24:07.538Z,82.45
2022-09-07T03:27:05.061Z,82.51
2022-09-07T03:30:02.526Z,82.41
2022-09-07T03:33:00.005Z,82.50
2022-09-07T03:35:57.602Z,82.61
2022-09-07T03:38:55.100Z,82.67
2022-09-07T03:41:52.886Z,82.78
2022-09-07T03:44:50.664Z,82.77
2022-09-07T03:47:49.330Z,82.89
2022-09-07T03:50:46.863Z,82.99
2022-09-07T03:53:44.350Z,83.01
2022-09-07T03:56:41.841Z,82.96
2022-09-07T03:59:39.299Z,82.94
2022-09-07T04:02:36.812Z,83.05
2022-09-07T04:05:34.309Z,83.18
2022-09-07T04:08:31.960Z,83.15
2022-09-07T04:11:29.565Z,83.25
2022-09-07T04:14:27.038Z,83.27
2022-09-07T04:17:24.533Z,83.31
2022-09-07T04:20:22.011Z,83.32
2022-09-07T04:23:19.502Z,83.48
2022-09-07T04:26:16.953Z,83.56
2022-09-07T04:29:14.449Z,83.62
2022-09-07T04:32:15.626Z,83.76
2022-09-07T04:35:13.472Z,83.74
2022-09-07T04:38:11.003Z,83.90
2022-09-07T04:41:09.517Z,84.02
2022-09-07T04:44:07.502Z,84.09
2022-09-07T04:47:05.008Z,84.08
2022-09-07T04:50:02.740Z,84.11
2022-09-07T04:53:00.227Z,84.20
2022-09-07T04:55:57.713Z,84.30
2022-09-07T04:58:55.203Z,84.26
2022-09-07T05:01:52.755Z,84.21
2022-09-07T05:04:50.298Z,84.27
2022-09-07T05:07:47.794Z,84.42
2022-09-07T05:10:45.286Z,84.49
2022-09-07T05:13:42.778Z,84.52
2022-09-07T05:16:40.296Z,84.51
2022-09-07T05:19:37.837Z,84.63
2022-09-07T05:22:35.724Z,84.76
2022-09-07T05:25:33.341Z,84.81
2022-09-07T05:28:31.228Z,84.84
2022-09-07T05:31:28.946Z,85.13
2022-09-07T05:37:28.782Z,85.42
2022-09-07T05:40:26.263Z,85.48
2022-09-07T05:43:24.050Z,85.39
2022-09-07T05:46:21.579Z,85.23
2022-09-07T05:49:19.114Z,84.70
2022-09-07T05:52:16.591Z,84.60
2022-09-07T05:55:29.445Z,84.26
2022-09-07T05:58:28.121Z,83.89
2022-09-07T06:01:25.670Z,83.58
2022-09-07T06:04:23.175Z,83.15
2022-09-07T06:07:22.448Z,82.29
2022-09-07T06:13:38.513Z,81.13
2022-09-07T06:16:36.029Z,80.72
2022-09-07T06:19:33.547Z,80.42
2022-09-07T06:22:31.460Z,80.14
2022-09-07T06:25:28.994Z,79.91
2022-09-07T06:28:26.465Z,79.71
2022-09-07T06:31:24.129Z,79.40
2022-09-07T06:34:23.090Z,78.86
2022-09-07T06:37:20.569Z,78.34
2022-09-07T06:40:18.058Z,77.50
2022-09-07T06:43:15.521Z,76.63
2022-09-07T06:49:30.430Z,74.83
2022-09-07T06:52:28.279Z,73.57
2022-09-07T06:55:25.896Z,72.62
2022-09-07T06:58:24.926Z,71.52
2022-09-07T07:01:22.493Z,70.05
2022-09-07T07:04:19.970Z,69.12
2022-09-07T07:07:17.462Z,68.05
2022-09-07T07:10:14.961Z,66.55
2022-09-07T07:13:12.447Z,64.96
2022-09-07T07:16:09.947Z,63.92
2022-09-07T07:19:07.459Z,62.66
2022-09-07T07:22:18.711Z,62.19
2022-09-07T07:25:22.422Z,61.86
2022-09-07T07:31:37.369Z,61.23
2022-09-07T07:34:34.866Z,60.72
2022-09-07T07:37:32.445Z,60.62
2022-09-07T07:40:31.864Z,59.87
2022-09-07T07:43:30.939Z,59.47
2022-09-07T07:46:28.707Z,58.56
2022-09-07T07:49:26.221Z,57.74
2022-09-07T07:55:43.860Z,55.71
2022-09-07T07:58:41.722Z,54.39
2022-09-07T08:01:39.239Z,52.79
2022-09-07T08:04:37.003Z,51.90
2022-09-07T08:07:34.461Z,51.28
2022-09-07T08:10:31.885Z,50.04
2022-09-07T08:13:29.444Z,48.42
2022-09-07T08:16:27.020Z,48.03
2022-09-07T08:19:24.652Z,47.80
2022-09-07T08:22:22.083Z,46.46
2022-09-07T08:25:19.800Z,46.10
2022-09-07T08:28:17.247Z,45.57
2022-09-07T08:31:14.776Z,44.41
2022-09-07T08:34:12.256Z,44.03
2022-09-07T08:37:09.702Z,43.21
2022-09-07T08:40:07.295Z,42.76
2022-09-07T08:43:05.008Z,41.96
2022-09-07T08:46:02.433Z,41.46
2022-09-07T08:48:59.886Z,41.32
2022-09-07T08:51:57.304Z,40.65
2022-09-07T08:54:54.800Z,40.05
2022-09-07T08:57:52.286Z,39.28
2022-09-07T09:00:50.254Z,38.81
2022-09-07T09:07:05.317Z,37.91
2022-09-07T09:10:02.891Z,36.98
2022-09-07T09:13:01.580Z,37.08
2022-09-07T09:15:59.102Z,36.22
2022-09-07T09:18:56.597Z,36.06
2022-09-07T09:21:54.034Z,35.93
2022-09-07T09:24:51.506Z,35.58
2022-09-07T09:27:48.995Z,34.69
2022-09-07T09:30:47.933Z,34.12
2022-09-07T09:33:45.794Z,33.95
2022-09-07T09:36:43.243Z,33.48
2022-09-07T09:39:42.764Z,32.93
2022-09-07T09:42:40.878Z,31.86
2022-09-07T09:48:55.708Z,30.86
2022-09-07T09:55:33.335Z,29.91
2022-09-07T10:05:03.251Z,28.05
2022-09-07T10:08:00.678Z,27.21
2022-09-07T10:10:58.111Z,26.71
2022-09-07T10:13:55.964Z,26.38
2022-09-07T10:16:53.399Z,25.76
2022-09-07T10:19:50.891Z,25.36
2022-09-07T10:22:51.434Z,25.13
2022-09-07T10:25:49.112Z,24.11
2022-09-07T10:32:03.939Z,23.72
2022-09-07T10:35:01.361Z,23.23
2022-09-07T10:37:58.805Z,22.85
2022-09-07T10:40:56.237Z,22.78
2022-09-07T10:43:53.797Z,22.77
2022-09-07T10:46:58.580Z,22.65
2022-09-07T10:53:39.613Z,22.88
2022-09-07T10:56:31.063Z,22.71
2022-09-07T11:00:07.501Z,22.81
2022-09-07T11:03:24.841Z,22.71
2022-09-07T11:06:04.471Z,22.40
2022-09-07T11:09:18.058Z,22.12
2022-09-07T11:12:16.162Z,22.09
2022-09-07T11:15:13.589Z,21.77
2022-09-07T11:18:11.030Z,21.50
2022-09-07T11:21:08.486Z,21.26
2022-09-07T11:24:09.364Z,21.12
2022-09-07T11:27:06.825Z,20.91
2022-09-07T11:30:05.145Z,20.89
2022-09-07T11:33:02.608Z,20.56
2022-09-07T11:36:02.300Z,20.35
2022-09-07T11:39:00.037Z,20.43
2022-09-07T11:41:57.714Z,20.16
2022-09-07T11:44:55.330Z,20.04
2022-09-07T11:47:52.786Z,19.73
2022-09-07T11:50:50.283Z,19.87
2022-09-07T11:53:47.729Z,19.69
2022-09-07T11:56:45.574Z,19.94
2022-09-07T11:59:43.423Z,20.02
2022-09-07T12:02:58.410Z,19.84
2022-09-07T12:05:57.125Z,19.77
2022-09-07T12:08:54.571Z,19.95
2022-09-07T12:11:52.029Z,19.87
2022-09-07T12:14:50.533Z,19.83
2022-09-07T12:17:47.979Z,19.85
2022-09-07T12:20:45.410Z,20.05
2022-09-07T12:23:42.851Z,20.36
2022-09-07T12:26:40.275Z,20.57
2022-09-07T12:29:37.714Z,20.93
2022-09-07T12:35:52.551Z,21.69
2022-09-07T12:38:50.148Z,22.44
2022-09-07T12:41:47.895Z,22.96
2022-09-07T12:44:45.602Z,23.54
2022-09-07T12:47:43.044Z,24.25
2022-09-07T12:50:42.279Z,24.40
2022-09-07T12:53:39.997Z,24.84
2022-09-07T12:56:37.426Z,25.22
2022-09-07T12:59:34.864Z,25.62
2022-09-07T13:02:32.413Z,25.68
2022-09-07T13:05:30.668Z,26.09
2022-09-07T13:08:28.217Z,26.30
2022-09-07T13:11:25.668Z,26.61
2022-09-07T13:14:23.373Z,26.83
2022-09-07T13:17:20.950Z,27.00
2022-09-07T13:20:18.470Z,27.34
2022-09-07T13:23:15.906Z,27.41
2022-09-07T13:26:13.331Z,27.51
2022-09-07T13:29:10.785Z,27.97
2022-09-07T13:32:08.232Z,27.98
2022-09-07T13:35:05.683Z,27.90
2022-09-07T13:38:03.114Z,28.18
2022-09-07T13:41:00.537Z,28.36
2022-09-07T13:43:58.485Z,28.84
2022-09-07T13:46:55.911Z,28.92
2022-09-07T13:49:55.903Z,29.20
2022-09-07T13:52:53.890Z,29.75
2022-09-07T13:55:51.324Z,29.57
2022-09-07T13:58:48.771Z,29.70
2022-09-07T14:01:46.280Z,29.55
2022-09-07T14:04:44.409Z,29.71
2022-09-07T14:07:41.838Z,29.71
2022-09-07T14:10:39.264Z,30.07
2022-09-07T14:13:36.712Z,30.07
2022-09-07T14:16:34.356Z,30.23
2022-09-07T14:19:31.812Z,30.64
2022-09-07T14:22:29.250Z,31.03
2022-09-07T14:25:26.973Z,30.98
2022-09-07T14:28:24.732Z,31.12
2022-09-07T14:31:22.252Z,31.15
2022-09-07T14:34:19.743Z,31.39
2022-09-07T14:37:17.160Z,31.59
2022-09-07T14:40:14.691Z,31.31
2022-09-07T14:43:12.161Z,31.33
2022-09-07T14:46:09.654Z,31.52
2022-09-07T14:49:08.000Z,31.49
2022-09-07T14:52:05.632Z,31.39
2022-09-07T14:55:03.053Z,31.71
2022-09-07T14:58:04.207Z,31.97
2022-09-07T15:04:22.442Z,32.47
2022-09-07T15:07:20.038Z,32.97
2022-09-07T15:10:17.482Z,33.56
2022-09-07T15:13:14.930Z,34.14
2022-09-07T15:16:13.283Z,34.78
2022-09-07T15:19:10.809Z,35.35
2022-09-07T15:22:08.295Z,35.57
2022-09-07T15:25:05.772Z,35.58
2022-09-07T15:28:03.191Z,36.03
2022-09-07T15:34:18.227Z,36.62
2022-09-07T15:40:33.752Z,37.88
2022-09-07T15:43:31.384Z,38.26
2022-09-07T15:46:29.055Z,38.77
2022-09-07T15:49:28.043Z,39.21
2022-09-07T15:52:25.804Z,39.32
2022-09-07T15:55:24.506Z,39.92
2022-09-07T15:58:21.915Z,40.09
2022-09-07T16:04:38.795Z,40.78
2022-09-07T16:10:55.320Z,41.37
2022-09-07T16:13:53.446Z,41.63
2022-09-07T16:20:08.384Z,41.98
2022-09-07T16:23:13.981Z,42.52
2022-09-07T16:26:12.385Z,42.60
2022-09-07T16:29:10.480Z,42.96
2022-09-07T16:35:25.303Z,43.64
2022-09-07T16:41:40.183Z,43.97
2022-09-07T16:44:37.628Z,44.34
2022-09-07T16:47:35.062Z,44.24
2022-09-07T16:50:32.524Z,44.67
2022-09-07T16:53:29.974Z,44.89
2022-09-07T16:56:27.415Z,45.24
2022-09-07T16:59:26.871Z,45.78
2022-09-07T17:02:24.315Z,45.60
2022-09-07T17:05:21.810Z,45.93
2022-09-07T17:08:19.237Z,46.54
2022-09-07T17:11:17.180Z,46.85
2022-09-07T17:14:14.666Z,47.04
2022-09-07T17:17:12.093Z,47.49
2022-09-07T17:20:09.530Z,47.88
2022-09-07T17:23:07.009Z,48.31
2022-09-07T17:26:04.430Z,49.04
2022-09-07T17:29:01.866Z,49.37
2022-09-07T17:35:17.755Z,50.39
2022-09-07T17:41:32.669Z,51.50
2022-09-07T17:44:35.844Z,52.13
2022-09-07T17:47:35.456Z,52.37
2022-09-07T17:50:32.986Z,52.88
2022-09-07T17:53:30.528Z,53.36
2022-09-07T17:56:28.041Z,53.87
2022-09-07T18:02:43.217Z,54.64
2022-09-07T18:05:41.036Z,55.15
2022-09-07T18:08:38.868Z,55.54
2022-09-07T18:11:45.855Z,55.91
2022-09-07T18:14:44.830Z,56.17
2022-09-07T18:17:42.551Z,56.59
2022-09-07T18:20:40.405Z,57.03
2022-09-07T18:23:38.261Z,57.29
2022-09-07T18:26:36.130Z,57.90
2022-09-07T18:29:34.557Z,58.32
2022-09-07T18:32:32.201Z,58.74
2022-09-07T18:35:30.035Z,58.94
2022-09-07T18:38:27.924Z,59.29
2022-09-07T18:41:25.769Z,59.77
2022-09-07T18:47:47.519Z,60.29
2022-09-07T18:50:45.559Z,60.83
2022-09-07T18:53:43.924Z,61.22
2022-09-07T18:56:41.830Z,61.49
2022-09-07T18:59:40.985Z,61.83
2022-09-07T19:02:39.121Z,62.26
2022-09-07T19:05:53.112Z,62.49
2022-09-07T19:08:51.315Z,62.66
2022-09-07T19:11:49.959Z,62.89
2022-09-07T19:14:47.854Z,63.12
2022-09-07T19:17:45.805Z,63.43
2022-09-07T19:20:44.172Z,63.64
2022-09-07T19:23:42.075Z,63.76
2022-09-07T19:26:40.253Z,63.96
2022-09-07T19:29:38.166Z,64.04
2022-09-07T19:32:35.957Z,64.49
2022-09-07T19:35:34.138Z,64.81
2022-09-07T19:38:32.189Z,65.16
2022-09-07T19:41:30.150Z,65.33
2022-09-07T19:44:28.536Z,65.52
2022-09-07T19:47:26.449Z,65.64
2022-09-07T19:50:24.367Z,65.90
2022-09-07T19:53:23.601Z,66.27
2022-09-07T19:56:22.582Z,66.62
2022-09-07T19:59:20.766Z,66.70
2022-09-07T20:02:18.717Z,67.13
2022-09-07T20:05:16.713Z,67.55
2022-09-07T20:08:14.611Z,67.82
2022-09-07T20:11:12.435Z,68.07
2022-09-07T20:14:10.264Z,68.17
2022-09-07T20:17:08.128Z,68.27
2022-09-07T20:20:06.405Z,68.61
2022-09-07T20:23:04.096Z,68.68
2022-09-07T20:26:01.967Z,69.01
2022-09-07T20:29:16.754Z,69.21
2022-09-07T20:32:18.052Z,69.38
2022-09-07T20:35:15.631Z,69.78
2022-09-07T20:38:13.195Z,70.15
2022-09-07T20:41:10.650Z,70.38
2022-09-07T20:44:08.065Z,70.61
2022-09-07T20:47:05.722Z,70.68
2022-09-07T20:50:03.244Z,70.89
2022-09-07T20:53:00.690Z,71.09
2022-09-07T20:55:58.137Z,71.24
2022-09-07T20:58:55.576Z,71.42
2022-09-07T21:01:53.057Z,71.83
2022-09-07T21:04:50.535Z,72.40
2022-09-07T21:07:47.982Z,72.69
2022-09-07T21:10:45.413Z,72.89
2022-09-07T21:13:42.887Z,73.21
2022-09-07T21:16:40.462Z,73.40
2022-09-07T21:19:37.993Z,73.72
2022-09-07T21:22:35.434Z,73.98
2022-09-07T21:25:32.871Z,74.09
2022-09-07T21:28:30.331Z,73.97
2022-09-07T21:31:27.826Z,74.19
2022-09-07T21:34:25.339Z,74.57
2022-09-07T21:37:22.799Z,74.76
2022-09-07T21:40:20.232Z,74.99
2022-09-07T21:43:17.665Z,75.02
2022-09-07T21:46:15.824Z,75.21
2022-09-07T21:49:13.280Z,75.41
2022-09-07T21:52:10.709Z,75.49
2022-09-07T21:55:08.153Z,75.56
2022-09-07T21:58:05.746Z,75.65
2022-09-07T22:01:03.460Z,75.83
2022-09-07T22:04:00.928Z,76.11
2022-09-07T22:06:58.349Z,76.35
2022-09-07T22:09:55.786Z,76.68
2022-09-07T22:12:53.272Z,76.69
2022-09-07T22:15:50.750Z,76.73
2022-09-07T22:18:48.220Z,76.88
2022-09-07T22:21:45.633Z,76.85
2022-09-07T22:24:43.089Z,77.12
2022-09-07T22:27:40.522Z,77.29
2022-09-07T22:30:37.966Z,77.59
2022-09-07T22:33:35.391Z,77.66
2022-09-07T22:36:32.933Z,77.69
2022-09-07T22:39:30.400Z,77.92
2022-09-07T22:42:27.833Z,78.17
2022-09-07T22:45:25.264Z,78.33
2022-09-07T22:48:23.217Z,78.34
2022-09-07T22:51:20.624Z,78.30
2022-09-07T22:54:18.070Z,78.41
2022-09-07T22:57:15.522Z,78.37
2022-09-07T23:00:13.275Z,78.39
2022-09-07T23:03:10.788Z,78.51
2022-09-07T23:06:08.913Z,78.75
2022-09-07T23:09:06.862Z,78.74
2022-09-07T23:12:04.638Z,78.79
2022-09-07T23:15:02.080Z,78.84
2022-09-07T23:17:59.519Z,78.99
2022-09-07T23:21:00.282Z,79.19
2022-09-07T23:23:58.114Z,79.29
2022-09-07T23:26:55.567Z,79.15
2022-09-07T23:29:53.000Z,79.28
2022-09-07T23:32:50.445Z,79.53
2022-09-07T23:35:47.962Z,79.73
2022-09-07T23:38:45.451Z,79.76
2022-09-07T23:41:42.890Z,79.91
2022-09-07T23:44:40.327Z,80.12
2022-09-07T23:47:37.758Z,80.27
2022-09-07T23:50:35.461Z,80.33
2022-09-07T23:53:33.018Z,80.50
2022-09-07T23:56:31.322Z,80.71
2022-09-07T23:59:28.779Z,80.77
